createdAt,value
2019-04-06T00:01:26.789Z,83.77
2019-04-06T00:03:56.421Z,103.07
2019-04-06T00:06:26.027Z,90.27
2019-04-06T00:08:55.766Z,95.77
2019-04-06T00:11:25.411Z,96.53
2019-04-06T00:13:55.130Z,88.87
2019-04-06T00:16:24.839Z,83.93
2019-04-06T00:18:54.431Z,89.47
2019-04-06T00:21:24.570Z,94.33
2019-04-06T00:23:54.435Z,100.07
2019-04-06T00:26:24.455Z,85.53
2019-04-06T00:28:54.411Z,83.70
2019-04-06T00:31:28.439Z,83.27
2019-04-06T00:33:58.018Z,85.83
2019-04-06T00:36:27.628Z,95.40
2019-04-06T00:38:57.279Z,87.93
2019-04-06T00:41:26.886Z,91.07
2019-04-06T00:43:56.467Z,93.87
2019-04-06T00:46:26.095Z,84.20
2019-04-06T00:48:55.654Z,84.80
2019-04-06T00:51:25.211Z,100.20
2019-04-06T00:53:54.784Z,114.50
2019-04-06T00:56:24.378Z,94.90
2019-04-06T00:58:54.045Z,106.53
2019-04-06T01:01:23.664Z,80.37
2019-04-06T01:03:53.311Z,89.00
2019-04-06T01:06:23.425Z,89.50
2019-04-06T01:08:53.082Z,88.23
2019-04-06T01:11:22.752Z,90.00
2019-04-06T01:13:52.318Z,90.73
2019-04-06T01:16:22.108Z,107.93
2019-04-06T01:18:52.296Z,75.87
2019-04-06T01:21:21.885Z,111.40
2019-04-06T01:23:51.567Z,88.80
2019-04-06T01:26:21.080Z,94.10
2019-04-06T01:28:50.704Z,90.73
2019-04-06T01:31:20.403Z,93.53
2019-04-06T01:33:50.003Z,88.23
2019-04-06T01:36:22.894Z,110.53
2019-04-06T01:38:52.511Z,103.97
2019-04-06T01:41:22.447Z,90.80
2019-04-06T01:43:52.233Z,105.33
2019-04-06T01:46:22.028Z,94.63
2019-04-06T01:48:51.799Z,102.10
2019-04-06T01:51:21.383Z,81.10
2019-04-06T01:53:53.081Z,92.83
2019-04-06T01:56:22.578Z,94.70
2019-04-06T01:58:52.179Z,95.00
2019-04-06T02:01:29.368Z,90.57
2019-04-06T02:04:18.297Z,103.90
2019-04-06T02:06:47.790Z,94.47
2019-04-06T02:09:17.382Z,105.20
2019-04-06T02:11:46.919Z,104.67
2019-04-06T02:14:16.662Z,106.23
2019-04-06T02:16:46.338Z,84.23
2019-04-06T02:19:15.881Z,101.47
2019-04-06T02:21:45.459Z,107.87
2019-04-06T02:24:14.986Z,106.37
2019-04-06T02:26:44.643Z,101.23
2019-04-06T02:29:14.404Z,102.37
2019-04-06T02:32:02.061Z,106.77
2019-04-06T02:34:48.552Z,111.90
2019-04-06T02:37:50.915Z,84.30
2019-04-06T02:40:30.500Z,118.17
2019-04-06T02:43:01.887Z,117.50
2019-04-06T02:45:31.591Z,105.70
2019-04-06T02:48:01.242Z,112.03
2019-04-06T02:50:30.969Z,119.67
2019-04-06T02:53:00.540Z,116.30
2019-04-06T02:55:30.225Z,101.80
2019-04-06T02:57:59.865Z,109.23
2019-04-06T03:00:29.571Z,113.17
2019-04-06T03:02:59.215Z,92.00
2019-04-06T03:05:28.853Z,112.53
2019-04-06T03:07:58.502Z,115.23
2019-04-06T03:10:28.246Z,123.13
2019-04-06T03:12:57.933Z,101.00
2019-04-06T03:15:27.737Z,112.83
2019-04-06T03:17:57.413Z,84.63
2019-04-06T03:20:27.073Z,100.77
2019-04-06T03:22:56.714Z,108.47
2019-04-06T03:25:26.395Z,107.43
2019-04-06T03:27:56.209Z,85.87
2019-04-06T03:30:25.891Z,101.50
2019-04-06T03:32:55.648Z,99.83
2019-04-06T03:35:25.336Z,105.03
2019-04-06T03:37:54.974Z,106.00
2019-04-06T03:40:24.631Z,92.30
2019-04-06T03:42:54.331Z,133.07
2019-04-06T03:45:23.938Z,84.53
2019-04-06T03:47:53.661Z,96.27
2019-04-06T03:50:42.635Z,97.20
2019-04-06T03:53:31.575Z,110.40
2019-04-06T03:56:01.222Z,84.93
2019-04-06T03:58:31.027Z,100.63
2019-04-06T04:01:00.854Z,95.27
2019-04-06T04:03:30.549Z,109.50
2019-04-06T04:06:00.254Z,87.57
2019-04-06T04:08:29.967Z,83.07
2019-04-06T04:10:59.786Z,86.93
2019-04-06T04:13:29.368Z,95.10
2019-04-06T04:15:59.037Z,83.30
2019-04-06T04:18:28.558Z,112.40
2019-04-06T04:20:58.270Z,98.17
2019-04-06T04:23:27.944Z,87.27
2019-04-06T04:25:57.578Z,97.03
2019-04-06T04:28:27.406Z,74.23
2019-04-06T04:30:57.089Z,111.00
2019-04-06T04:33:26.799Z,96.97
2019-04-06T04:35:56.382Z,98.77
2019-04-06T04:38:25.981Z,89.30
2019-04-06T04:40:55.648Z,97.23
2019-04-06T04:43:25.649Z,105.03
2019-04-06T04:45:55.554Z,89.77
2019-04-06T04:48:25.404Z,101.57
2019-04-06T04:50:55.188Z,97.47
2019-04-06T04:53:24.785Z,96.30
2019-04-06T04:55:54.423Z,100.97
2019-04-06T04:58:24.187Z,111.47
2019-04-06T05:00:54.209Z,83.83
2019-04-06T05:03:23.996Z,75.23
2019-04-06T05:05:53.619Z,95.67
2019-04-06T05:08:23.174Z,97.13
2019-04-06T05:10:53.205Z,104.70
2019-04-06T05:13:22.871Z,104.33
2019-04-06T05:16:07.747Z,115.47
2019-04-06T05:18:37.690Z,119.10
2019-04-06T05:21:07.363Z,104.00
2019-04-06T05:23:36.998Z,97.80
2019-04-06T05:26:06.947Z,100.37
2019-04-06T05:28:36.522Z,102.97
2019-04-06T05:31:06.276Z,94.67
2019-04-06T05:33:36.405Z,107.60
2019-04-06T05:36:06.449Z,86.87
2019-04-06T05:38:36.028Z,78.23
2019-04-06T05:41:05.796Z,81.60
2019-04-06T05:43:35.471Z,87.13
2019-04-06T05:46:05.219Z,102.40
2019-04-06T05:48:36.862Z,103.70
2019-04-06T05:51:06.229Z,104.73
2019-04-06T05:53:36.118Z,96.43
2019-04-06T05:56:05.900Z,88.90
2019-04-06T05:58:35.795Z,84.03
2019-04-06T06:01:05.459Z,93.13
2019-04-06T06:03:35.307Z,112.13
2019-04-06T06:06:05.060Z,93.27
2019-04-06T06:08:34.678Z,84.20
2019-04-06T06:11:04.515Z,108.13
2019-04-06T06:13:34.087Z,96.43
2019-04-06T06:16:03.793Z,80.50
2019-04-06T06:18:33.642Z,86.63
2019-04-06T06:21:03.409Z,90.23
2019-04-06T06:23:33.190Z,85.17
2019-04-06T06:26:02.845Z,89.80
2019-04-06T06:28:32.710Z,86.10
2019-04-06T06:31:02.926Z,98.00
2019-04-06T06:33:32.599Z,69.73
2019-04-06T06:36:02.256Z,73.03
2019-04-06T06:38:32.147Z,94.40
2019-04-06T06:41:02.488Z,88.17
2019-04-06T06:43:32.245Z,75.90
2019-04-06T06:46:01.963Z,100.53
2019-04-06T06:48:32.018Z,83.23
2019-04-06T06:51:01.852Z,71.77
2019-04-06T06:53:31.574Z,75.10
2019-04-06T06:56:01.236Z,69.37
2019-04-06T06:58:31.266Z,91.73
2019-04-06T07:01:03.104Z,87.13
2019-04-06T07:03:32.304Z,77.93
2019-04-06T07:06:01.933Z,82.30
2019-04-06T07:08:31.953Z,82.73
2019-04-06T07:11:01.669Z,78.33
2019-04-06T07:13:31.246Z,74.47
2019-04-06T07:16:01.047Z,65.73
2019-04-06T07:18:30.792Z,70.87
2019-04-06T07:21:13.267Z,82.87
2019-04-06T07:23:42.867Z,74.63
2019-04-06T07:26:12.519Z,66.67
2019-04-06T07:28:44.994Z,82.97
2019-04-06T07:31:14.597Z,79.97
2019-04-06T07:33:44.438Z,82.43
2019-04-06T07:36:14.220Z,80.95
2019-04-06T07:38:44.647Z,67.73
2019-04-06T07:41:14.831Z,70.77
2019-04-06T07:43:44.571Z,74.13
2019-04-06T07:46:14.176Z,71.60
2019-04-06T07:48:43.838Z,75.33
2019-04-06T07:51:13.759Z,68.53
2019-04-06T07:53:43.418Z,73.90
2019-04-06T07:56:13.544Z,72.20
2019-04-06T07:58:49.523Z,72.63
2019-04-06T08:01:14.768Z,72.03
2019-04-06T08:03:44.420Z,72.73
2019-04-06T08:06:14.259Z,74.40
2019-04-06T08:08:43.774Z,85.53
2019-04-06T08:11:13.446Z,69.90
2019-04-06T08:13:43.230Z,67.60
2019-04-06T08:16:13.152Z,63.60
2019-04-06T08:18:43.014Z,73.77
2019-04-06T08:21:12.619Z,69.23
2019-04-06T09:18:09.796Z,56.73
2019-04-06T09:20:39.532Z,59.80
2019-04-06T09:23:09.297Z,63.80
2019-04-06T09:25:39.302Z,62.10
2019-04-06T09:28:09.547Z,61.53
2019-04-06T09:30:39.652Z,70.37
2019-04-06T09:33:09.518Z,56.73
2019-04-06T09:35:39.347Z,67.43
2019-04-06T09:38:10.724Z,58.50
2019-04-06T09:40:40.383Z,62.83
2019-04-06T09:43:10.311Z,68.03
2019-04-06T09:45:44.949Z,67.00
2019-04-06T09:48:28.952Z,60.93
2019-04-06T09:51:12.079Z,72.97
2019-04-06T09:54:05.589Z,59.53
2019-04-06T09:56:33.029Z,63.23
2019-04-06T09:59:21.023Z,67.77
2019-04-06T10:02:07.496Z,63.80
2019-04-06T10:04:41.836Z,62.47
2019-04-06T10:07:29.443Z,60.93
2019-04-06T10:10:03.770Z,55.23
2019-04-06T10:12:41.270Z,63.67
2019-04-06T10:15:15.781Z,61.23
2019-04-06T10:17:47.276Z,56.33
2019-04-06T10:20:21.400Z,63.60
2019-04-06T10:22:55.648Z,64.47
2019-04-06T10:25:43.085Z,67.10
2019-04-06T10:28:23.432Z,69.27
2019-04-06T10:31:06.975Z,52.43
2019-04-06T10:33:41.156Z,58.10
2019-04-06T10:36:15.192Z,48.27
2019-04-06T10:38:55.547Z,65.30
2019-04-06T10:41:29.642Z,62.57
2019-04-06T10:44:13.305Z,56.93
2019-04-06T10:46:44.879Z,63.77
2019-04-06T10:49:32.778Z,58.40
2019-04-06T10:52:10.227Z,54.53
2019-04-06T10:54:47.970Z,59.00
2019-04-06T10:57:22.597Z,59.20
2019-04-06T11:00:10.363Z,56.67
2019-04-06T11:02:44.621Z,60.43
2019-04-06T11:05:28.132Z,51.30
2019-04-06T11:07:59.507Z,53.97
2019-04-06T11:10:33.445Z,66.10
2019-04-06T11:13:10.301Z,53.83
2019-04-06T11:15:58.035Z,68.97
2019-04-06T11:18:38.644Z,65.43
2019-04-06T11:21:12.855Z,59.57
2019-04-06T11:23:46.731Z,79.50
2019-04-06T11:26:29.739Z,61.30
2019-04-06T11:29:01.141Z,60.70
2019-04-06T11:31:34.876Z,65.30
2019-04-06T11:34:15.196Z,60.80
2019-04-06T11:37:03.122Z,60.17
2019-04-06T11:39:37.033Z,65.00
2019-04-06T11:42:11.059Z,66.73
2019-04-06T11:44:51.310Z,58.67
2019-04-06T11:47:22.658Z,65.43
2019-04-06T11:49:54.201Z,68.70
2019-04-06T11:52:40.463Z,62.30
2019-04-06T11:55:18.188Z,65.40
2019-04-06T11:58:06.496Z,59.53
2019-04-06T12:00:37.960Z,63.93
2019-04-06T12:03:09.251Z,56.23
2019-04-06T12:05:46.333Z,63.50
2019-04-06T12:08:32.857Z,62.17
2019-04-06T12:11:09.884Z,60.57
2019-04-06T12:13:47.038Z,55.40
2019-04-06T12:16:21.341Z,54.47
2019-04-06T12:18:52.774Z,64.57
2019-04-06T12:21:33.218Z,61.57
2019-04-06T12:24:07.332Z,71.67
2019-04-06T12:26:44.415Z,58.37
2019-04-06T12:29:32.379Z,56.77
2019-04-06T12:32:20.192Z,58.03
2019-04-06T12:34:51.738Z,57.67
2019-04-06T12:37:28.866Z,66.23
2019-04-06T12:40:05.981Z,61.87
2019-04-06T12:42:42.917Z,62.73
2019-04-06T12:45:30.389Z,65.63
2019-04-06T12:48:16.442Z,67.10
2019-04-06T12:50:50.839Z,61.63
2019-04-06T12:53:38.496Z,63.90
2019-04-06T12:56:15.489Z,62.37
2019-04-06T12:58:52.688Z,58.50
2019-04-06T13:01:24.093Z,69.00
2019-04-06T13:04:13.314Z,57.57
2019-04-06T13:06:47.323Z,61.97
2019-04-06T13:09:54.041Z,60.27
2019-04-06T13:12:37.260Z,61.83
2019-04-06T13:15:12.387Z,64.00
2019-04-06T13:17:52.316Z,56.97
2019-04-06T13:20:38.902Z,58.80
2019-04-06T13:23:10.699Z,64.33
2019-04-06T13:25:47.930Z,62.27
2019-04-06T13:28:19.288Z,65.67
2019-04-06T13:31:01.356Z,58.13
2019-04-06T13:33:36.142Z,61.60
2019-04-06T13:36:10.378Z,57.90
2019-04-06T13:38:58.060Z,67.90
2019-04-06T13:41:31.864Z,73.60
2019-04-06T13:44:03.126Z,65.10
2019-04-06T13:46:34.446Z,62.03
2019-04-06T13:49:08.888Z,69.47
2019-04-06T13:51:42.757Z,64.53
2019-04-06T13:54:30.474Z,60.00
2019-04-06T13:57:07.367Z,64.57
2019-04-06T13:59:56.986Z,58.17
2019-04-06T14:02:34.862Z,60.90
2019-04-06T14:05:08.429Z,71.03
2019-04-06T14:07:39.719Z,69.27
2019-04-06T14:10:11.382Z,63.47
2019-04-06T14:12:55.121Z,66.97
2019-04-06T14:15:26.369Z,61.70
2019-04-06T14:17:57.749Z,65.17
2019-04-06T14:20:31.540Z,61.70
2019-04-06T14:23:06.130Z,53.90
2019-04-06T14:25:37.989Z,63.60
2019-04-06T14:28:12.056Z,69.33
2019-04-06T14:30:48.980Z,56.83
2019-04-06T14:33:29.304Z,53.50
2019-04-06T14:36:09.310Z,56.47
2019-04-06T14:38:43.099Z,59.70
2019-04-06T14:41:16.462Z,55.03
2019-04-06T14:43:53.501Z,59.97
2019-04-06T14:46:41.409Z,57.97
2019-04-06T14:49:28.517Z,61.03
2019-04-06T14:51:51.174Z,63.20
2019-04-06T14:54:22.896Z,55.80
2019-04-06T14:57:11.326Z,59.27
2019-04-06T15:00:01.095Z,53.60
2019-04-06T15:02:35.091Z,52.50
2019-04-06T15:05:23.930Z,55.40
2019-04-06T15:08:00.868Z,47.60
2019-04-06T15:10:47.544Z,53.13
2019-04-06T15:13:37.099Z,49.27
2019-04-06T15:16:36.772Z,53.20
2019-04-06T15:19:10.606Z,57.57
2019-04-06T15:21:48.120Z,51.13
2019-04-06T15:24:31.489Z,58.20
2019-04-06T15:27:08.768Z,60.83
2019-04-06T15:29:49.357Z,60.10
2019-04-06T15:32:20.963Z,56.37
2019-04-06T15:34:55.568Z,53.43
2019-04-06T15:37:52.546Z,47.90
2019-04-06T15:40:29.955Z,46.50
2019-04-06T15:43:06.892Z,44.07
2019-04-06T15:45:56.282Z,50.13
2019-04-06T15:48:38.448Z,48.33
2019-04-06T15:51:09.556Z,49.73
2019-04-06T15:53:55.994Z,43.13
2019-04-06T15:56:42.343Z,53.67
2019-04-06T15:59:20.378Z,53.77
2019-04-06T16:02:09.887Z,48.40
2019-04-06T16:04:41.360Z,46.17
2019-04-06T16:07:32.542Z,48.03
2019-04-06T16:10:09.952Z,51.27
2019-04-06T16:12:41.484Z,50.70
2019-04-06T16:15:12.939Z,47.23
2019-04-06T16:17:49.982Z,42.37
2019-04-06T16:20:38.401Z,45.20
2019-04-06T16:23:10.207Z,49.13
2019-04-06T16:25:58.361Z,43.50
2019-04-06T16:28:32.574Z,44.97
2019-04-06T16:31:04.165Z,53.50
2019-04-06T16:33:47.370Z,59.03
2019-04-06T16:36:21.370Z,45.27
2019-04-06T16:39:04.943Z,47.00
2019-04-06T16:44:49.181Z,49.37
2019-04-06T16:47:20.575Z,64.60
2019-04-06T16:49:57.927Z,56.30
2019-04-06T16:52:32.390Z,66.60
2019-04-06T16:55:16.032Z,58.73
2019-04-06T16:58:04.074Z,58.00
2019-04-06T17:00:35.430Z,53.95
2019-04-06T17:03:07.200Z,59.37
2019-04-06T17:05:41.751Z,52.47
2019-04-06T17:08:16.498Z,49.30
2019-04-06T17:11:03.785Z,49.77
2019-04-06T17:13:35.421Z,53.60
2019-04-06T17:16:15.816Z,54.70
2019-04-06T17:19:02.349Z,52.13
2019-04-06T17:21:45.517Z,55.70
2019-04-06T17:24:35.162Z,46.63
2019-04-06T17:27:06.415Z,56.50
2019-04-06T17:29:40.488Z,53.67
2019-04-06T17:32:14.574Z,49.27
2019-04-06T17:34:54.881Z,59.27
2019-04-06T17:37:24.851Z,50.03
2019-04-06T17:39:59.432Z,50.93
2019-04-06T17:42:31.286Z,56.93
2019-04-06T17:45:02.718Z,57.20
2019-04-06T17:47:39.865Z,49.23
2019-04-06T17:50:20.230Z,56.87
2019-04-06T17:52:54.746Z,54.17
2019-04-06T17:55:32.251Z,49.50
2019-04-06T17:58:06.371Z,53.10
2019-04-06T18:00:47.269Z,55.60
2019-04-06T18:03:25.196Z,53.17
2019-04-06T18:05:56.969Z,59.87
2019-04-06T18:08:46.766Z,54.23
2019-04-06T18:11:27.149Z,60.43
2019-04-06T18:13:56.903Z,60.57
2019-04-06T18:16:28.840Z,62.17
2019-04-06T18:18:58.773Z,53.67
2019-04-06T18:21:28.896Z,64.50
2019-04-06T18:23:59.068Z,64.57
2019-04-06T18:26:28.715Z,58.50
2019-04-06T18:29:17.836Z,59.00
2019-04-06T18:32:07.348Z,63.30
2019-04-06T18:34:36.963Z,60.10
2019-04-06T18:37:20.078Z,64.77
2019-04-06T18:40:11.404Z,69.33
2019-04-06T18:42:41.755Z,65.50
2019-04-06T18:45:11.881Z,65.27
2019-04-06T18:47:41.544Z,77.47
2019-04-06T18:50:12.873Z,71.07
2019-04-06T18:52:43.112Z,79.83
2019-04-06T18:55:13.019Z,70.33
2019-04-06T18:57:43.520Z,64.57
2019-04-06T19:00:13.966Z,91.60
2019-04-06T19:02:43.774Z,74.87
2019-04-06T19:07:42.575Z,61.37
2019-04-06T19:10:13.328Z,66.87
2019-04-06T19:12:43.150Z,57.53
2019-04-06T19:15:13.621Z,67.03
2019-04-06T19:17:43.958Z,63.80
2019-04-06T19:20:14.685Z,70.73
2019-04-06T19:22:44.486Z,64.87
2019-04-06T19:25:14.452Z,69.40
2019-04-06T19:27:44.361Z,64.27
2019-04-06T19:30:15.838Z,59.40
2019-04-06T19:32:45.750Z,60.17
